Time;durP1;ratioP1;P1;durP2;ratioP2;P2;SDS_P1;SDS_P2;PMS_P1;PMS_P2;Temp;Humidity;BMP_temperature;BMP_pressure;BME280_temperature;BME280_humidity;BME280_pressure;Samples;Min_cycle;Max_cycle;Signal;HPM_P1;HPM_P2
2023/05/23 00:01:06;;;;;;;11.93;10.73;;;16.00;99.90;;;;;;5046130;28;20099;-59
2023/05/23 00:03:31;;;;;;;12.55;11.45;;;16.00;99.90;;;;;;5045621;28;20644;-62
2023/05/23 00:05:57;;;;;;;11.30;10.30;;;16.00;99.90;;;;;;5046055;28;20029;-61
2023/05/23 00:08:23;;;;;;;10.45;9.55;;;16.00;99.90;;;;;;5045206;28;20100;-61
2023/05/23 00:10:49;;;;;;;11.65;10.55;;;15.90;99.90;;;;;;5045498;28;20027;-61
2023/05/23 00:13:14;;;;;;;12.43;11.23;;;15.90;99.90;;;;;;5046180;28;20321;-61
2023/05/23 00:15:43;;;;;;;12.95;11.77;;;15.90;99.90;;;;;;5046271;28;20020;-62
2023/05/23 00:18:10;;;;;;;12.00;10.57;;;15.80;99.90;;;;;;5044907;28;20108;-61
2023/05/23 00:20:41;;;;;;;10.95;9.95;;;15.70;99.90;;;;;;5045115;28;20040;-62
2023/05/23 00:23:08;;;;;;;12.07;10.88;;;15.70;99.90;;;;;;5045158;28;20033;-62
2023/05/23 00:25:34;;;;;;;11.65;10.52;;;15.70;99.90;;;;;;5023971;28;20526;-61
2023/05/23 00:28:01;;;;;;;13.40;12.05;;;15.70;99.90;;;;;;5044135;28;20422;-60
2023/05/23 00:30:30;;;;;;;12.60;11.40;;;15.70;99.90;;;;;;5040327;28;20043;-62
2023/05/23 00:32:55;;;;;;;13.90;12.60;;;15.60;99.90;;;;;;5043634;28;20450;-60
2023/05/23 00:35:22;;;;;;;12.40;11.30;;;15.60;99.90;;;;;;5026327;28;20036;-61
2023/05/23 00:37:50;;;;;;;11.63;10.57;;;15.60;99.90;;;;;;5045045;28;20032;-62
2023/05/23 00:40:19;;;;;;;12.15;11.07;;;15.60;99.90;;;;;;5027317;28;20056;-62
2023/05/23 00:42:46;;;;;;;11.45;10.45;;;15.50;99.90;;;;;;5043391;28;20072;-61
2023/05/23 00:45:11;;;;;;;13.60;12.23;;;15.50;99.90;;;;;;5041260;28;20061;-62
2023/05/23 00:47:44;;;;;;;13.80;12.50;;;15.50;99.90;;;;;;5042852;28;20470;-62
2023/05/23 00:50:14;;;;;;;14.48;13.27;;;15.50;99.90;;;;;;5026297;28;20021;-62
2023/05/23 00:52:41;;;;;;;12.73;11.38;;;15.40;99.90;;;;;;5043962;28;20060;-62
2023/05/23 00:55:08;;;;;;;13.20;12.00;;;15.40;99.90;;;;;;5041760;28;20032;-60
2023/05/23 00:57:34;;;;;;;15.30;13.85;;;15.50;99.90;;;;;;5022818;28;20040;-61
2023/05/23 01:00:01;;;;;;;14.68;13.27;;;15.50;99.90;;;;;;5035620;28;20060;-62
2023/05/23 01:02:27;;;;;;;15.20;13.48;;;15.50;99.90;;;;;;5040974;28;20050;-61
2023/05/23 01:04:54;;;;;;;14.48;13.07;;;15.50;99.90;;;;;;5038461;28;20369;-62
2023/05/23 01:07:20;;;;;;;13.38;12.07;;;15.40;99.90;;;;;;5024985;28;20041;-60
2023/05/23 01:09:46;;;;;;;15.93;14.45;;;15.40;99.90;;;;;;5042250;28;20602;-62
2023/05/23 01:12:41;;;;;;;15.98;14.30;;;15.40;99.90;;;;;;5040185;28;20065;-60
2023/05/23 01:15:10;;;;;;;14.38;13.07;;;15.40;99.90;;;;;;5043489;28;20029;-62
2023/05/23 01:18:01;;;;;;;14.05;12.30;;;15.40;99.90;;;;;;5043011;28;20566;-61
2023/05/23 01:20:36;;;;;;;13.75;12.48;;;15.40;99.90;;;;;;5044392;28;20032;-61
2023/05/23 01:23:28;;;;;;;14.97;13.57;;;15.40;99.90;;;;;;5046446;28;20023;-61
2023/05/23 01:26:12;;;;;;;15.88;14.38;;;15.40;99.90;;;;;;5048160;28;20035;-61
2023/05/23 01:28:44;;;;;;;17.10;15.52;;;15.40;99.90;;;;;;5043922;28;20029;-60
2023/05/23 01:31:12;;;;;;;14.35;12.85;;;15.40;99.90;;;;;;5027898;28;20806;-61
2023/05/23 01:33:39;;;;;;;14.52;13.23;;;15.40;99.90;;;;;;5046452;28;20503;-61
2023/05/23 01:36:06;;;;;;;14.15;12.85;;;15.40;99.90;;;;;;5047917;28;20442;-62
2023/05/23 01:38:31;;;;;;;15.93;13.93;;;15.40;99.90;;;;;;5046773;28;20050;-61
2023/05/23 01:40:57;;;;;;;17.48;15.68;;;15.40;99.90;;;;;;5030519;28;20031;-61
2023/05/23 01:43:25;;;;;;;15.65;14.15;;;15.40;99.90;;;;;;5049132;28;20053;-61
2023/05/23 01:45:54;;;;;;;14.38;13.07;;;15.40;99.90;;;;;;5047213;28;20507;-61
2023/05/23 01:48:21;;;;;;;15.30;13.88;;;15.40;99.90;;;;;;5048292;28;20025;-61
2023/05/23 01:50:47;;;;;;;16.23;14.63;;;15.40;99.90;;;;;;5047063;28;20052;-59
2023/05/23 01:53:16;;;;;;;14.82;13.43;;;15.40;99.90;;;;;;5030585;28;20178;-61
2023/05/23 01:55:45;;;;;;;15.55;13.98;;;15.40;99.90;;;;;;5041269;28;20117;-61
2023/05/23 01:58:11;;;;;;;14.50;13.10;;;15.40;99.90;;;;;;5045725;28;20533;-61
2023/05/23 02:00:37;;;;;;;16.13;14.63;;;15.40;99.90;;;;;;5045600;28;20296;-60
2023/05/23 02:03:04;;;;;;;15.90;14.35;;;15.40;99.90;;;;;;5048134;28;20051;-61
2023/05/23 02:05:30;;;;;;;14.27;13.07;;;15.40;99.90;;;;;;5047947;28;20051;-61
2023/05/23 02:07:55;;;;;;;16.63;14.90;;;15.40;99.90;;;;;;5047889;28;20478;-60
2023/05/23 02:10:22;;;;;;;16.40;14.90;;;15.40;99.90;;;;;;5048020;28;20438;-60
2023/05/23 02:12:47;;;;;;;17.58;15.85;;;15.50;99.90;;;;;;5046494;28;20025;-59
2023/05/23 02:15:13;;;;;;;13.45;12.20;;;15.50;99.90;;;;;;5046587;28;20510;-60
2023/05/23 02:17:41;;;;;;;16.92;15.43;;;15.50;99.90;;;;;;5047486;28;20031;-61
2023/05/23 02:20:10;;;;;;;16.80;15.20;;;15.50;99.90;;;;;;5047851;28;20659;-61
2023/05/23 02:22:36;;;;;;;15.65;14.10;;;15.50;99.90;;;;;;5046451;28;20025;-61
2023/05/23 02:25:01;;;;;;;20.75;18.65;;;15.50;99.90;;;;;;5047160;28;20021;-59
2023/05/23 02:27:27;;;;;;;27.58;24.65;;;15.60;99.90;;;;;;5046447;28;20083;-61
2023/05/23 02:29:53;;;;;;;28.73;25.85;;;15.60;99.90;;;;;;5029766;28;20024;-60
2023/05/23 02:32:18;;;;;;;26.20;23.60;;;15.60;99.90;;;;;;5040985;28;20522;-60
2023/05/23 02:34:45;;;;;;;32.55;29.20;;;15.60;99.90;;;;;;5044528;28;20025;-60
2023/05/23 02:37:12;;;;;;;33.08;29.77;;;15.60;99.90;;;;;;5047636;28;20052;-60
2023/05/23 02:39:37;;;;;;;34.22;30.67;;;15.60;99.90;;;;;;5047070;28;20032;-61
2023/05/23 02:42:03;;;;;;;33.22;29.98;;;15.50;99.90;;;;;;5042099;28;20103;-61
2023/05/23 02:44:29;;;;;;;33.40;29.92;;;15.40;99.90;;;;;;5043490;28;20033;-62
2023/05/23 02:46:54;;;;;;;28.95;25.92;;;15.40;99.90;;;;;;5046647;28;20036;-59
2023/05/23 02:49:20;;;;;;;37.30;33.38;;;15.40;99.90;;;;;;5046741;28;20104;-61
2023/05/23 02:51:45;;;;;;;39.78;34.47;;;15.30;99.90;;;;;;5046432;28;20052;-60
2023/05/23 02:54:12;;;;;;;37.80;33.95;;;15.40;99.90;;;;;;5044269;28;20025;-60
2023/05/23 02:56:37;;;;;;;39.35;33.47;;;15.40;99.90;;;;;;5044653;28;20029;-61
2023/05/23 02:59:03;;;;;;;38.95;34.80;;;15.40;99.90;;;;;;5044278;28;20195;-59
2023/05/23 03:01:29;;;;;;;37.88;33.58;;;15.40;99.90;;;;;;5046463;28;20041;-60
2023/05/23 03:03:54;;;;;;;43.95;34.28;;;15.30;99.90;;;;;;5046060;28;20178;-58
2023/05/23 03:06:21;;;;;;;41.65;34.92;;;15.10;99.90;;;;;;5028975;28;20033;-60
2023/05/23 03:08:46;;;;;;;43.78;35.33;;;15.10;99.90;;;;;;5046713;28;20054;-60
2023/05/23 03:11:12;;;;;;;46.90;36.03;;;15.00;99.90;;;;;;5047249;28;20387;-61
2023/05/23 03:13:38;;;;;;;43.03;32.97;;;15.00;99.90;;;;;;5047019;28;20108;-60
2023/05/23 03:16:03;;;;;;;41.85;32.53;;;14.90;99.90;;;;;;5046848;28;20039;-59
2023/05/23 03:18:29;;;;;;;36.80;31.60;;;14.90;99.90;;;;;;5028340;28;20068;-59
2023/05/23 03:20:55;;;;;;;39.08;32.30;;;14.90;99.90;;;;;;5046495;28;20387;-59
2023/05/23 03:23:20;;;;;;;40.80;31.92;;;14.90;99.90;;;;;;5046582;28;20571;-58
2023/05/23 03:25:46;;;;;;;40.50;31.83;;;14.80;99.90;;;;;;5046255;28;20033;-59
2023/05/23 03:28:11;;;;;;;38.80;29.83;;;14.80;99.90;;;;;;5046024;28;20664;-59
2023/05/23 03:30:37;;;;;;;39.30;30.02;;;14.80;99.90;;;;;;5027679;28;20580;-60
2023/05/23 03:33:03;;;;;;;46.10;31.48;;;14.80;99.90;;;;;;5044961;28;20411;-59
2023/05/23 03:35:29;;;;;;;47.05;29.17;;;14.80;99.90;;;;;;5028331;28;20043;-60
2023/05/23 03:37:54;;;;;;;39.42;29.83;;;14.70;99.90;;;;;;5046072;28;20024;-58
2023/05/23 03:40:20;;;;;;;36.67;28.88;;;14.70;99.90;;;;;;5046263;28;20033;-59
2023/05/23 03:42:48;;;;;;;36.55;28.83;;;14.70;99.90;;;;;;5045929;28;20222;-60
2023/05/23 03:45:14;;;;;;;36.25;28.95;;;14.60;99.90;;;;;;5045345;28;20588;-60
2023/05/23 03:47:41;;;;;;;37.33;29.38;;;14.60;99.90;;;;;;5044192;28;20029;-60
2023/05/23 03:50:07;;;;;;;36.25;26.38;;;14.60;99.90;;;;;;5044434;28;20017;-60
2023/05/23 03:52:33;;;;;;;41.05;28.58;;;14.60;99.90;;;;;;5042810;28;20510;-59
2023/05/23 03:54:58;;;;;;;33.63;25.63;;;14.60;99.90;;;;;;5045177;28;20048;-61
2023/05/23 03:57:24;;;;;;;36.95;26.20;;;14.60;99.90;;;;;;5045144;28;20040;-61
2023/05/23 03:59:49;;;;;;;32.42;27.08;;;14.50;99.90;;;;;;5045011;28;20036;-59
2023/05/23 04:02:15;;;;;;;40.95;27.42;;;14.60;99.90;;;;;;5044898;28;20131;-59
2023/05/23 04:04:41;;;;;;;38.00;28.02;;;14.60;99.90;;;;;;5044789;28;20033;-59
2023/05/23 04:07:08;;;;;;;37.92;27.65;;;14.60;99.90;;;;;;5044839;28;20035;-60
2023/05/23 04:09:34;;;;;;;45.67;30.02;;;14.60;99.90;;;;;;5043065;28;20459;-60
2023/05/23 04:12:00;;;;;;;38.25;27.13;;;14.60;99.90;;;;;;5045243;28;20052;-59
2023/05/23 04:14:26;;;;;;;34.05;27.02;;;14.50;99.90;;;;;;5045150;28;20032;-57
2023/05/23 04:16:52;;;;;;;39.28;28.58;;;14.50;99.90;;;;;;5043360;28;20075;-58
2023/05/23 04:19:17;;;;;;;38.42;28.83;;;14.50;99.90;;;;;;5027164;28;20029;-60
2023/05/23 04:21:43;;;;;;;42.85;28.30;;;14.50;99.90;;;;;;5044313;28;20582;-57
2023/05/23 04:24:09;;;;;;;37.28;28.70;;;14.50;99.90;;;;;;5042080;28;20115;-60
2023/05/23 04:26:35;;;;;;;39.63;27.52;;;14.50;99.90;;;;;;5041763;28;20051;-60
2023/05/23 04:29:02;;;;;;;37.72;28.88;;;14.50;99.90;;;;;;5044279;28;20025;-60
2023/05/23 04:31:28;;;;;;;40.40;29.35;;;14.50;99.90;;;;;;5044753;28;20028;-59
2023/05/23 04:33:53;;;;;;;51.08;30.13;;;14.50;99.90;;;;;;5044205;28;20443;-60
2023/05/23 04:36:19;;;;;;;41.63;28.88;;;14.40;99.90;;;;;;5038965;28;20445;-61
2023/05/23 04:38:44;;;;;;;40.72;28.33;;;14.30;99.90;;;;;;5039687;28;20029;-60
2023/05/23 04:41:10;;;;;;;38.70;29.17;;;14.30;99.90;;;;;;5040142;28;20056;-59
2023/05/23 04:43:41;;;;;;;39.45;28.63;;;14.30;99.90;;;;;;5026740;28;20025;-59
2023/05/23 04:46:10;;;;;;;39.28;27.35;;;14.20;99.90;;;;;;5042019;28;20049;-60
2023/05/23 04:48:37;;;;;;;39.33;28.67;;;14.20;99.90;;;;;;5041435;28;20499;-61
2023/05/23 04:51:10;;;;;;;50.05;31.45;;;14.20;99.90;;;;;;5043846;28;20060;-60
2023/05/23 04:53:35;;;;;;;44.67;29.88;;;14.20;99.90;;;;;;5043912;28;20020;-60
2023/05/23 04:56:01;;;;;;;49.42;30.55;;;14.20;99.90;;;;;;5043383;28;20029;-60
2023/05/23 04:58:27;;;;;;;39.88;30.13;;;14.20;99.90;;;;;;5043582;28;20506;-59
2023/05/23 05:00:53;;;;;;;49.05;30.17;;;14.20;99.90;;;;;;5041906;28;20112;-60
2023/05/23 05:03:18;;;;;;;48.75;31.80;;;14.20;99.90;;;;;;5045235;28;20021;-61
2023/05/23 05:05:44;;;;;;;45.65;32.65;;;14.20;99.90;;;;;;5045578;28;20478;-60
2023/05/23 05:08:10;;;;;;;42.28;30.08;;;14.20;99.90;;;;;;5047208;28;20580;-60
2023/05/23 05:10:37;;;;;;;39.55;29.48;;;14.20;99.90;;;;;;5030288;28;20438;-59
2023/05/23 05:13:02;;;;;;;46.83;32.53;;;14.20;99.90;;;;;;5047786;28;20091;-60
2023/05/23 05:15:28;;;;;;;48.70;30.77;;;14.20;99.90;;;;;;5044222;28;20033;-59
2023/05/23 05:17:53;;;;;;;47.20;32.33;;;14.20;99.90;;;;;;5025263;28;20010;-60
2023/05/23 05:20:20;;;;;;;41.67;30.45;;;14.20;99.90;;;;;;5042176;28;20094;-58
2023/05/23 05:22:55;;;;;;;40.60;30.17;;;14.20;99.90;;;;;;5040362;28;20025;-60
2023/05/23 05:25:20;;;;;;;48.65;31.77;;;14.20;99.90;;;;;;5047870;28;20776;-61
2023/05/23 05:27:46;;;;;;;50.15;31.88;;;14.20;99.90;;;;;;5044758;28;20254;-57
2023/05/23 05:30:12;;;;;;;45.25;30.35;;;14.20;99.90;;;;;;5045073;28;20029;-58
2023/05/23 05:32:37;;;;;;;45.60;31.85;;;14.20;99.90;;;;;;5044662;28;20033;-59
2023/05/23 05:35:03;;;;;;;46.90;32.80;;;14.20;99.90;;;;;;5047413;28;20031;-61
2023/05/23 05:37:29;;;;;;;54.05;32.35;;;14.20;99.90;;;;;;5043994;28;20025;-60
2023/05/23 05:39:55;;;;;;;49.08;33.17;;;14.20;99.90;;;;;;5048331;28;20032;-59
2023/05/23 05:42:21;;;;;;;42.00;30.50;;;14.20;99.90;;;;;;5045021;28;20029;-59
2023/05/23 05:44:47;;;;;;;53.88;32.78;;;14.20;99.90;;;;;;5029847;28;20040;-60
2023/05/23 05:47:13;;;;;;;45.15;32.53;;;14.20;99.90;;;;;;5046257;28;20033;-60
2023/05/23 05:49:39;;;;;;;45.67;33.47;;;14.10;99.90;;;;;;5041393;28;20147;-59
2023/05/23 05:52:08;;;;;;;53.60;33.75;;;14.10;99.90;;;;;;5047147;28;20074;-59
2023/05/23 05:54:33;;;;;;;50.03;33.53;;;14.10;99.90;;;;;;5041014;28;20117;-58
2023/05/23 05:56:59;;;;;;;51.83;34.80;;;14.10;99.90;;;;;;5046538;28;20468;-60
2023/05/23 05:59:24;;;;;;;41.38;30.63;;;14.10;99.90;;;;;;5029700;28;20052;-60
2023/05/23 06:01:51;;;;;;;43.75;31.65;;;14.00;99.90;;;;;;5046619;28;20116;-59
2023/05/23 06:04:17;;;;;;;50.67;32.55;;;14.10;99.90;;;;;;5042086;28;20091;-60
2023/05/23 06:06:42;;;;;;;52.20;34.20;;;14.10;99.90;;;;;;5040674;28;20542;-59
2023/05/23 06:09:09;;;;;;;46.05;32.75;;;14.10;99.90;;;;;;5043010;28;20028;-59
2023/05/23 06:11:38;;;;;;;64.25;32.75;;;14.10;99.90;;;;;;5047282;28;20017;-59
2023/05/23 06:14:03;;;;;;;49.20;33.13;;;14.10;99.90;;;;;;5046786;28;20013;-60
2023/05/23 06:16:29;;;;;;;43.92;31.52;;;14.00;99.90;;;;;;5047585;28;20036;-60
2023/05/23 06:18:54;;;;;;;56.50;35.33;;;14.00;99.90;;;;;;5046978;28;20021;-60
2023/05/23 06:21:20;;;;;;;52.72;34.90;;;14.00;99.90;;;;;;5046957;28;20021;-59
2023/05/23 06:23:45;;;;;;;59.60;36.97;;;14.00;99.90;;;;;;5047103;28;20033;-60
2023/05/23 06:26:11;;;;;;;60.08;38.58;;;14.00;99.90;;;;;;5028858;28;20048;-57
2023/05/23 06:28:38;;;;;;;54.50;35.97;;;13.90;99.90;;;;;;5047390;28;20415;-56
2023/05/23 06:31:04;;;;;;;59.72;36.70;;;13.90;99.90;;;;;;5029109;28;20407;-61
2023/05/23 06:33:30;;;;;;;51.03;36.78;;;13.90;99.90;;;;;;5047255;28;20028;-58
2023/05/23 06:35:56;;;;;;;54.30;36.13;;;13.90;99.90;;;;;;5046967;28;20074;-57
2023/05/23 06:38:21;;;;;;;47.55;35.65;;;13.90;99.90;;;;;;5044418;28;20025;-61
2023/05/23 06:40:47;;;;;;;51.03;34.35;;;13.90;99.90;;;;;;5024682;28;20033;-61
2023/05/23 06:43:13;;;;;;;48.10;33.88;;;13.90;99.90;;;;;;5028810;28;20104;-57
2023/05/23 06:45:39;;;;;;;37.08;30.10;;;13.90;99.90;;;;;;5047084;28;20104;-60
2023/05/23 06:48:05;;;;;;;37.13;27.35;;;14.00;99.90;;;;;;5045006;28;20035;-61
2023/05/23 06:50:30;;;;;;;32.42;27.13;;;14.00;99.90;;;;;;5046735;28;20078;-61
2023/05/23 06:52:56;;;;;;;23.30;20.73;;;14.00;99.90;;;;;;5045566;28;20029;-63
2023/05/23 06:55:22;;;;;;;22.83;19.95;;;13.90;99.90;;;;;;5028119;28;20112;-61
2023/05/23 06:57:50;;;;;;;19.90;17.85;;;13.80;99.90;;;;;;5045048;28;20487;-61
2023/05/23 07:00:17;;;;;;;19.40;16.98;;;13.80;99.90;;;;;;5044283;28;20029;-60
2023/05/23 07:02:44;;;;;;;19.10;16.63;;;13.80;99.90;;;;;;5046329;28;20372;-61
2023/05/23 07:05:11;;;;;;;20.85;16.67;;;13.80;99.90;;;;;;5041708;28;20055;-61
2023/05/23 07:07:36;;;;;;;20.83;17.23;;;13.70;99.90;;;;;;5046376;28;20493;-62
2023/05/23 07:10:02;;;;;;;17.77;15.77;;;13.70;99.90;;;;;;5043009;28;20021;-62
2023/05/23 07:12:27;;;;;;;17.75;15.82;;;13.70;99.90;;;;;;5046433;28;20009;-60
2023/05/23 07:14:53;;;;;;;15.45;13.77;;;13.70;99.90;;;;;;5045592;28;20112;-62
2023/05/23 07:17:18;;;;;;;16.63;13.88;;;13.70;99.90;;;;;;5046315;28;20029;-62
2023/05/23 07:19:44;;;;;;;15.15;12.85;;;13.70;99.90;;;;;;5045796;28;20630;-61
2023/05/23 07:22:10;;;;;;;16.00;11.65;;;13.70;99.90;;;;;;5043959;28;20090;-62
2023/05/23 07:24:36;;;;;;;12.88;11.40;;;13.70;99.90;;;;;;5046145;28;20021;-63
2023/05/23 07:27:01;;;;;;;11.52;10.43;;;13.60;99.90;;;;;;5026943;28;20024;-61
2023/05/23 07:29:27;;;;;;;13.52;10.45;;;13.60;99.90;;;;;;5045981;28;20517;-63
2023/05/23 07:31:52;;;;;;;11.98;10.77;;;13.70;99.90;;;;;;5043637;28;20039;-62
2023/05/23 07:34:18;;;;;;;10.75;9.65;;;13.80;99.90;;;;;;5027543;28;20017;-61
2023/05/23 07:36:43;;;;;;;13.45;10.27;;;13.80;99.90;;;;;;5030034;28;20021;-63
2023/05/23 07:39:09;;;;;;;10.68;9.20;;;13.80;99.90;;;;;;5044069;28;20523;-61
2023/05/23 07:41:35;;;;;;;10.65;9.55;;;13.80;99.90;;;;;;5024112;28;20218;-63
2023/05/23 07:44:00;;;;;;;9.98;8.70;;;13.90;99.90;;;;;;5043316;28;20033;-62
2023/05/23 07:46:26;;;;;;;10.15;8.77;;;14.00;99.90;;;;;;5044603;28;20441;-62
2023/05/23 07:48:52;;;;;;;9.20;7.90;;;14.00;99.90;;;;;;5038563;28;20025;-62
2023/05/23 07:51:20;;;;;;;11.23;9.48;;;14.00;99.90;;;;;;5044527;28;20132;-62
2023/05/23 07:53:45;;;;;;;9.70;8.25;;;14.10;99.90;;;;;;5029160;28;20596;-63
2023/05/23 07:56:11;;;;;;;11.23;8.32;;;14.10;99.90;;;;;;5044891;28;20025;-63
2023/05/23 07:58:37;;;;;;;8.90;8.05;;;14.10;99.90;;;;;;5045338;28;20021;-63
2023/05/23 08:01:02;;;;;;;11.45;8.38;;;14.10;99.90;;;;;;5044334;28;20056;-62
2023/05/23 08:03:28;;;;;;;12.20;8.45;;;14.20;99.90;;;;;;5040557;28;20426;-63
2023/05/23 08:05:53;;;;;;;8.48;7.68;;;14.20;99.90;;;;;;5045080;28;20096;-63
2023/05/23 08:08:20;;;;;;;8.68;7.05;;;14.20;99.90;;;;;;5044155;28;20108;-63
2023/05/23 08:10:45;;;;;;;7.65;6.93;;;14.20;99.90;;;;;;5040133;28;20017;-63
2023/05/23 08:13:11;;;;;;;7.50;6.70;;;14.10;99.90;;;;;;5039621;28;20028;-63
2023/05/23 08:15:37;;;;;;;7.28;6.57;;;14.10;99.90;;;;;;5038518;28;20570;-61
2023/05/23 08:18:03;;;;;;;7.90;6.78;;;14.10;99.90;;;;;;5042406;28;20086;-61
2023/05/23 08:20:30;;;;;;;7.05;6.45;;;14.00;99.90;;;;;;5042270;28;20024;-62
2023/05/23 08:23:00;;;;;;;7.38;5.93;;;14.10;99.90;;;;;;5044707;28;20470;-61
2023/05/23 08:25:32;;;;;;;7.93;6.20;;;14.00;99.90;;;;;;5044489;28;20028;-61
2023/05/23 08:27:59;;;;;;;6.68;5.57;;;14.00;99.90;;;;;;5044413;28;20028;-63
2023/05/23 08:30:26;;;;;;;5.35;4.85;;;14.10;99.90;;;;;;5042670;28;20199;-62
2023/05/23 08:32:54;;;;;;;6.03;4.85;;;14.00;99.90;;;;;;5043517;28;20036;-61
2023/05/23 08:35:20;;;;;;;5.63;3.97;;;14.10;99.90;;;;;;5025942;28;20083;-64
2023/05/23 08:37:46;;;;;;;6.70;4.05;;;14.10;99.90;;;;;;5025922;28;20368;-63
2023/05/23 08:40:22;;;;;;;6.60;4.68;;;14.00;99.90;;;;;;5044284;28;20496;-62
2023/05/23 08:42:48;;;;;;;8.13;4.53;;;13.90;99.90;;;;;;5026699;28;20028;-60
2023/05/23 08:45:15;;;;;;;5.60;4.95;;;13.80;99.90;;;;;;5044507;28;20488;-61
2023/05/23 08:47:44;;;;;;;5.82;5.22;;;13.70;99.90;;;;;;5043708;28;20229;-63
2023/05/23 08:50:13;;;;;;;7.30;5.80;;;13.60;99.90;;;;;;5044125;28;20009;-64
2023/05/23 08:52:46;;;;;;;6.18;5.55;;;13.60;99.90;;;;;;5044421;28;20010;-63
2023/05/23 08:55:12;;;;;;;8.45;6.03;;;13.60;99.90;;;;;;5044264;28;20162;-62
2023/05/23 08:57:42;;;;;;;7.78;6.25;;;13.50;99.90;;;;;;5043561;28;20543;-63
2023/05/23 09:00:13;;;;;;;6.82;6.20;;;13.40;99.90;;;;;;5043665;28;20021;-61
2023/05/23 09:02:42;;;;;;;8.57;6.28;;;13.30;99.90;;;;;;5043368;28;20124;-63
2023/05/23 09:05:08;;;;;;;8.70;6.72;;;13.30;99.90;;;;;;5044245;28;20285;-62
2023/05/23 09:07:34;;;;;;;8.35;6.95;;;13.30;99.90;;;;;;5043631;28;20509;-62
2023/05/23 09:10:00;;;;;;;8.20;7.13;;;13.30;99.90;;;;;;5043608;28;20025;-63
2023/05/23 09:12:26;;;;;;;12.27;9.02;;;13.20;99.90;;;;;;5044478;28;20384;-62
2023/05/23 09:14:51;;;;;;;11.13;8.35;;;13.30;99.90;;;;;;5044436;28;20025;-63
2023/05/23 09:17:21;;;;;;;10.15;7.18;;;13.10;99.90;;;;;;5028381;28;20025;-64
2023/05/23 09:19:47;;;;;;;10.32;7.43;;;13.00;99.90;;;;;;5044096;28;20478;-63
2023/05/23 09:22:12;;;;;;;11.05;8.25;;;12.90;99.90;;;;;;5043652;28;20108;-61
2023/05/23 09:24:38;;;;;;;10.02;7.45;;;12.80;99.90;;;;;;5044135;28;20593;-61
2023/05/23 09:27:06;;;;;;;8.20;6.80;;;12.70;99.90;;;;;;5025579;28;20328;-61
2023/05/23 09:29:31;;;;;;;8.90;6.22;;;12.70;99.90;;;;;;5044052;28;20186;-62
2023/05/23 09:32:10;;;;;;;11.38;6.78;;;12.60;99.90;;;;;;5043600;28;20540;-61
2023/05/23 09:34:40;;;;;;;7.93;6.28;;;12.60;99.90;;;;;;5043863;28;20032;-61
2023/05/23 09:37:07;;;;;;;9.10;6.50;;;12.60;99.90;;;;;;5043882;28;20104;-62
2023/05/23 09:39:36;;;;;;;9.68;6.00;;;12.50;99.90;;;;;;5043933;28;20029;-63
2023/05/23 09:42:02;;;;;;;7.32;4.85;;;12.50;99.90;;;;;;5045978;28;20167;-61
2023/05/23 09:44:27;;;;;;;6.70;4.80;;;12.40;99.90;;;;;;5047709;28;20107;-61
2023/05/23 09:46:53;;;;;;;6.40;4.30;;;12.50;99.90;;;;;;5029457;28;20021;-62
2023/05/23 09:49:19;;;;;;;5.57;3.80;;;12.50;99.90;;;;;;5046799;28;20162;-61
2023/05/23 09:51:56;;;;;;;5.15;3.25;;;12.30;99.90;;;;;;5031863;28;20017;-63
2023/05/23 09:54:23;;;;;;;3.83;3.40;;;12.30;99.90;;;;;;5047267;28;20044;-61
2023/05/23 09:56:51;;;;;;;6.30;4.00;;;12.30;99.90;;;;;;5047770;28;20135;-60
2023/05/23 09:59:23;;;;;;;6.60;3.70;;;12.30;99.90;;;;;;5047040;28;20552;-62
2023/05/23 10:01:51;;;;;;;7.13;3.85;;;12.30;99.90;;;;;;5028619;28;20163;-60
2023/05/23 10:04:22;;;;;;;6.60;3.67;;;12.30;99.90;;;;;;5046543;28;20074;-61
2023/05/23 10:06:58;;;;;;;7.03;3.85;;;12.30;99.90;;;;;;5046559;28;20021;-61
2023/05/23 10:09:30;;;;;;;8.43;3.78;;;12.30;99.90;;;;;;5028288;28;20136;-62
2023/05/23 10:11:59;;;;;;;4.57;3.83;;;12.40;99.90;;;;;;5047218;28;20017;-62
2023/05/23 10:14:28;;;;;;;5.78;3.70;;;12.30;99.90;;;;;;5046868;28;20092;-62
2023/05/23 10:17:07;;;;;;;4.03;3.03;;;12.30;99.90;;;;;;5043825;28;20063;-60
2023/05/23 10:19:50;;;;;;;5.38;3.83;;;12.30;99.90;;;;;;5046880;28;20405;-62
2023/05/23 10:22:17;;;;;;;4.28;3.47;;;12.30;99.90;;;;;;5045609;28;20365;-60
2023/05/23 10:24:45;;;;;;;5.40;3.30;;;12.30;99.90;;;;;;5045882;28;20111;-63
2023/05/23 10:27:10;;;;;;;7.35;3.30;;;12.40;99.90;;;;;;5046384;28;20475;-61
2023/05/23 10:29:36;;;;;;;3.72;3.20;;;12.30;99.90;;;;;;5045813;28;20064;-62
2023/05/23 10:32:04;;;;;;;6.30;3.00;;;12.40;99.90;;;;;;5043680;28;20625;-61
2023/05/23 10:35:07;;;;;;;9.68;3.47;;;12.40;99.90;;;;;;5026927;28;20057;-62
2023/05/23 10:37:51;;;;;;;4.63;2.88;;;12.50;99.90;;;;;;5046099;28;20025;-60
2023/05/23 10:40:33;;;;;;;5.95;2.67;;;12.50;99.90;;;;;;5026719;28;20495;-60
2023/05/23 10:43:07;;;;;;;7.30;2.92;;;12.50;99.90;;;;;;5046888;28;20033;-61
2023/05/23 10:45:43;;;;;;;9.40;2.90;;;12.50;99.90;;;;;;5046460;28;20442;-62
2023/05/23 10:48:31;;;;;;;5.95;2.58;;;12.60;99.90;;;;;;5046218;28;20055;-63
2023/05/23 10:51:06;;;;;;;8.18;3.35;;;12.60;99.90;;;;;;5045665;28;20025;-62
2023/05/23 10:53:35;;;;;;;8.93;3.17;;;12.60;99.90;;;;;;5045306;28;20033;-61
2023/05/23 10:56:01;;;;;;;5.65;2.80;;;12.60;99.90;;;;;;5022634;28;20379;-62
2023/05/23 10:58:29;;;;;;;3.90;2.30;;;12.60;99.90;;;;;;5027613;28;20563;-62
2023/05/23 11:00:56;;;;;;;9.75;3.03;;;12.70;99.90;;;;;;5042925;28;20043;-61
2023/05/23 11:03:51;;;;;;;9.48;2.72;;;12.80;99.90;;;;;;5027713;28;20037;-60
2023/05/23 11:06:47;;;;;;;6.43;3.05;;;12.80;99.90;;;;;;5045882;28;20029;-61
2023/05/23 11:09:20;;;;;;;8.18;3.35;;;12.80;99.90;;;;;;5043917;28;20062;-62
2023/05/23 11:11:56;;;;;;;7.97;3.00;;;12.90;99.90;;;;;;5028481;28;20041;-60
2023/05/23 11:14:32;;;;;;;3.47;2.45;;;12.90;99.90;;;;;;5046015;28;20033;-61
2023/05/23 11:17:18;;;;;;;7.43;3.20;;;13.00;99.90;;;;;;5028045;28;20025;-61
2023/05/23 11:19:59;;;;;;;4.97;2.63;;;13.20;99.90;;;;;;5045497;28;20044;-61
2023/05/23 11:22:31;;;;;;;6.05;3.58;;;13.30;99.90;;;;;;5045022;28;20056;-63
2023/05/23 11:24:58;;;;;;;7.63;3.25;;;13.40;99.90;;;;;;5027502;28;20028;-60
2023/05/23 11:27:30;;;;;;;7.45;3.13;;;13.40;99.90;;;;;;5045609;28;20116;-60
2023/05/23 11:30:09;;;;;;;7.75;3.28;;;13.50;99.90;;;;;;5028409;28;20719;-61
2023/05/23 11:32:36;;;;;;;8.32;2.70;;;13.50;99.90;;;;;;5044739;28;20591;-61
2023/05/23 11:35:04;;;;;;;6.82;2.78;;;13.60;99.90;;;;;;5045976;28;20052;-61
2023/05/23 11:37:30;;;;;;;9.95;3.33;;;13.80;99.90;;;;;;5027297;28;20031;-61
2023/05/23 11:39:57;;;;;;;4.72;2.67;;;14.00;99.90;;;;;;5045903;28;20029;-61
2023/05/23 11:42:23;;;;;;;12.88;4.35;;;14.10;99.90;;;;;;5045376;28;20072;-61
2023/05/23 11:44:50;;;;;;;7.10;3.22;;;14.40;99.90;;;;;;5042956;28;20033;-60
2023/05/23 11:47:16;;;;;;;10.77;4.00;;;14.70;99.90;;;;;;5038471;28;20131;-61
2023/05/23 11:49:47;;;;;;;11.20;3.15;;;14.80;99.90;;;;;;5045101;28;20398;-59
2023/05/23 11:52:14;;;;;;;7.80;2.55;;;14.70;99.90;;;;;;5043639;28;20108;-59
2023/05/23 11:54:43;;;;;;;12.57;3.10;;;14.70;99.90;;;;;;5027332;28;20031;-62
2023/05/23 11:57:10;;;;;;;11.60;3.47;;;14.90;99.90;;;;;;5043044;28;20557;-63
2023/05/23 11:59:36;;;;;;;7.55;3.33;;;15.10;99.90;;;;;;5045099;28;20090;-60
2023/05/23 12:02:04;;;;;;;8.23;2.85;;;15.00;99.90;;;;;;5040021;28;20504;-61
2023/05/23 12:04:30;;;;;;;7.53;2.72;;;14.90;99.90;;;;;;5044147;28;20025;-61
2023/05/23 12:06:55;;;;;;;8.60;3.45;;;14.90;99.90;;;;;;5044529;28;20090;-61
2023/05/23 12:09:21;;;;;;;8.27;3.13;;;14.90;99.90;;;;;;5044543;28;20074;-62
2023/05/23 12:11:48;;;;;;;5.18;3.13;;;15.00;99.90;;;;;;5022253;28;20162;-61
2023/05/23 12:14:15;;;;;;;8.82;3.50;;;14.90;99.90;;;;;;5043101;28;20051;-61
2023/05/23 12:16:45;;;;;;;8.93;3.15;;;15.10;99.90;;;;;;5044364;28;20455;-63
2023/05/23 12:19:11;;;;;;;6.97;3.97;;;15.20;99.90;;;;;;5043617;28;20029;-54
2023/05/23 12:21:41;;;;;;;7.15;2.83;;;15.40;99.90;;;;;;5044379;28;20032;-62
2023/05/23 12:24:20;;;;;;;9.90;3.47;;;15.60;99.90;;;;;;5043001;28;20024;-62
2023/05/23 12:26:51;;;;;;;9.68;3.63;;;15.50;99.90;;;;;;5041193;28;20036;-61
2023/05/23 12:29:34;;;;;;;11.40;3.50;;;15.30;99.90;;;;;;5043960;28;20023;-62
2023/05/23 12:32:01;;;;;;;11.98;3.20;;;15.20;99.90;;;;;;5040446;28;20526;-62
2023/05/23 12:34:27;;;;;;;9.20;3.13;;;15.30;99.90;;;;;;5026136;28;20487;-62
2023/05/23 12:37:02;;;;;;;7.07;3.22;;;15.40;99.90;;;;;;5039944;28;20249;-63